sensor_id;sensor_type;location;lat;lon;timestamp;temperature;humidity
12769;DHT22;6448;48.916;8.990;2023-02-28T00:00:05;6.60;40.50
12769;DHT22;6448;48.916;8.990;2023-02-28T00:01:11;6.60;40.70
12769;DHT22;6448;48.916;8.990;2023-02-28T00:02:12;6.60;41.00
12769;DHT22;6448;48.916;8.990;2023-02-28T00:03:14;6.60;40.80
12769;DHT22;6448;48.916;8.990;2023-02-28T00:04:14;6.60;40.90
12769;DHT22;6448;48.916;8.990;2023-02-28T00:05:19;6.60;41.00
12769;DHT22;6448;48.916;8.990;2023-02-28T00:06:20;6.60;41.10
12769;DHT22;6448;48.916;8.990;2023-02-28T00:07:22;6.60;41.10
12769;DHT22;6448;48.916;8.990;2023-02-28T00:08:23;6.60;41.20
12769;DHT22;6448;48.916;8.990;2023-02-28T00:09:24;6.60;41.30
12769;DHT22;6448;48.916;8.990;2023-02-28T00:10:27;6.50;41.30
12769;DHT22;6448;48.916;8.990;2023-02-28T00:11:29;6.50;41.40
12769;DHT22;6448;48.916;8.990;2023-02-28T00:12:30;6.50;41.40
12769;DHT22;6448;48.916;8.990;2023-02-28T00:13:31;6.50;41.40
12769;DHT22;6448;48.916;8.990;2023-02-28T00:14:33;6.50;41.60
12769;DHT22;6448;48.916;8.990;2023-02-28T00:15:34;6.70;41.70
12769;DHT22;6448;48.916;8.990;2023-02-28T00:16:36;6.50;41.70
12769;DHT22;6448;48.916;8.990;2023-02-28T00:17:37;6.50;41.70
12769;DHT22;6448;48.916;8.990;2023-02-28T00:18:39;6.50;41.70
12769;DHT22;6448;48.916;8.990;2023-02-28T00:19:40;6.50;41.70
12769;DHT22;6448;48.916;8.990;2023-02-28T00:20:43;6.50;41.80
12769;DHT22;6448;48.916;8.990;2023-02-28T00:21:44;6.50;41.80
12769;DHT22;6448;48.916;8.990;2023-02-28T00:22:47;6.50;41.80
12769;DHT22;6448;48.916;8.990;2023-02-28T00:23:48;6.40;41.80
12769;DHT22;6448;48.916;8.990;2023-02-28T00:24:50;6.50;42.00
12769;DHT22;6448;48.916;8.990;2023-02-28T00:25:51;6.50;42.10
12769;DHT22;6448;48.916;8.990;2023-02-28T00:26:53;6.40;42.10
12769;DHT22;6448;48.916;8.990;2023-02-28T00:27:54;6.50;42.10
12769;DHT22;6448;48.916;8.990;2023-02-28T00:28:56;6.40;42.10
12769;DHT22;6448;48.916;8.990;2023-02-28T00:29:57;6.40;42.10
12769;DHT22;6448;48.916;8.990;2023-02-28T00:30:58;6.40;42.20
12769;DHT22;6448;48.916;8.990;2023-02-28T00:32:01;6.40;42.20
12769;DHT22;6448;48.916;8.990;2023-02-28T00:33:02;6.40;42.30
12769;DHT22;6448;48.916;8.990;2023-02-28T00:34:03;6.40;42.30
12769;DHT22;6448;48.916;8.990;2023-02-28T00:35:07;6.40;42.30
12769;DHT22;6448;48.916;8.990;2023-02-28T00:36:11;6.40;42.30
12769;DHT22;6448;48.916;8.990;2023-02-28T00:37:13;6.40;42.40
12769;DHT22;6448;48.916;8.990;2023-02-28T00:38:14;6.40;42.40
12769;DHT22;6448;48.916;8.990;2023-02-28T00:39:16;6.40;42.40
12769;DHT22;6448;48.916;8.990;2023-02-28T00:40:17;6.40;42.50
12769;DHT22;6448;48.916;8.990;2023-02-28T00:41:19;6.40;42.50
12769;DHT22;6448;48.916;8.990;2023-02-28T00:42:21;6.40;42.50
12769;DHT22;6448;48.916;8.990;2023-02-28T00:43:23;6.40;42.60
12769;DHT22;6448;48.916;8.990;2023-02-28T00:44:24;6.40;42.50
12769;DHT22;6448;48.916;8.990;2023-02-28T00:45:27;6.40;42.60
12769;DHT22;6448;48.916;8.990;2023-02-28T00:46:29;6.40;42.70
12769;DHT22;6448;48.916;8.990;2023-02-28T00:47:32;6.40;42.70
12769;DHT22;6448;48.916;8.990;2023-02-28T00:48:34;6.40;42.80
12769;DHT22;6448;48.916;8.990;2023-02-28T00:49:36;6.30;42.80
12769;DHT22;6448;48.916;8.990;2023-02-28T00:50:37;6.40;42.90
12769;DHT22;6448;48.916;8.990;2023-02-28T00:51:40;6.30;42.80
12769;DHT22;6448;48.916;8.990;2023-02-28T00:52:41;6.30;42.90
12769;DHT22;6448;48.916;8.990;2023-02-28T00:53:42;6.30;43.00
12769;DHT22;6448;48.916;8.990;2023-02-28T00:54:44;6.30;43.00
12769;DHT22;6448;48.916;8.990;2023-02-28T00:55:45;6.30;43.00
12769;DHT22;6448;48.916;8.990;2023-02-28T00:56:46;6.30;43.10
12769;DHT22;6448;48.916;8.990;2023-02-28T00:57:47;6.30;43.10
12769;DHT22;6448;48.916;8.990;2023-02-28T00:58:49;6.30;43.10
12769;DHT22;6448;48.916;8.990;2023-02-28T00:59:50;6.50;43.20
12769;DHT22;6448;48.916;8.990;2023-02-28T01:00:55;6.30;43.20
12769;DHT22;6448;48.916;8.990;2023-02-28T01:01:56;6.30;43.20
12769;DHT22;6448;48.916;8.990;2023-02-28T01:02:58;6.30;43.20
12769;DHT22;6448;48.916;8.990;2023-02-28T01:03:59;6.30;43.20
12769;DHT22;6448;48.916;8.990;2023-02-28T01:05:01;6.30;43.30
12769;DHT22;6448;48.916;8.990;2023-02-28T01:06:04;6.30;43.30
12769;DHT22;6448;48.916;8.990;2023-02-28T01:07:08;6.30;43.30
12769;DHT22;6448;48.916;8.990;2023-02-28T01:08:08;6.30;43.30
12769;DHT22;6448;48.916;8.990;2023-02-28T01:09:10;6.30;43.40
12769;DHT22;6448;48.916;8.990;2023-02-28T01:10:11;6.30;43.40
12769;DHT22;6448;48.916;8.990;2023-02-28T01:11:16;6.30;43.40
12769;DHT22;6448;48.916;8.990;2023-02-28T01:12:17;6.20;43.40
12769;DHT22;6448;48.916;8.990;2023-02-28T01:13:21;6.30;43.50
12769;DHT22;6448;48.916;8.990;2023-02-28T01:14:23;6.30;43.50
12769;DHT22;6448;48.916;8.990;2023-02-28T01:15:25;6.20;43.40
12769;DHT22;6448;48.916;8.990;2023-02-28T01:16:27;6.30;43.50
12769;DHT22;6448;48.916;8.990;2023-02-28T01:17:28;6.20;43.50
12769;DHT22;6448;48.916;8.990;2023-02-28T01:18:29;6.20;43.60
12769;DHT22;6448;48.916;8.990;2023-02-28T01:19:31;6.20;43.50
12769;DHT22;6448;48.916;8.990;2023-02-28T01:20:32;6.30;43.60
12769;DHT22;6448;48.916;8.990;2023-02-28T01:21:34;6.20;43.50
12769;DHT22;6448;48.916;8.990;2023-02-28T01:22:36;6.20;43.60
12769;DHT22;6448;48.916;8.990;2023-02-28T01:23:38;6.20;43.60
12769;DHT22;6448;48.916;8.990;2023-02-28T01:24:39;6.20;43.60
12769;DHT22;6448;48.916;8.990;2023-02-28T01:25:41;6.20;43.60
12769;DHT22;6448;48.916;8.990;2023-02-28T01:26:42;6.20;43.70
12769;DHT22;6448;48.916;8.990;2023-02-28T01:27:43;6.20;43.60
12769;DHT22;6448;48.916;8.990;2023-02-28T01:28:45;6.20;43.60
12769;DHT22;6448;48.916;8.990;2023-02-28T01:29:47;6.20;43.70
12769;DHT22;6448;48.916;8.990;2023-02-28T01:30:48;6.20;43.70
12769;DHT22;6448;48.916;8.990;2023-02-28T01:31:50;6.20;43.70
12769;DHT22;6448;48.916;8.990;2023-02-28T01:32:51;6.20;43.70
12769;DHT22;6448;48.916;8.990;2023-02-28T01:33:53;6.10;43.70
12769;DHT22;6448;48.916;8.990;2023-02-28T01:34:55;6.20;43.70
12769;DHT22;6448;48.916;8.990;2023-02-28T01:35:58;6.20;43.70
12769;DHT22;6448;48.916;8.990;2023-02-28T01:36:59;6.20;43.70
12769;DHT22;6448;48.916;8.990;2023-02-28T01:38:03;6.20;43.80
12769;DHT22;6448;48.916;8.990;2023-02-28T01:39:03;6.10;43.70
12769;DHT22;6448;48.916;8.990;2023-02-28T01:40:06;6.10;43.80
12769;DHT22;6448;48.916;8.990;2023-02-28T01:41:09;6.10;43.80
12769;DHT22;6448;48.916;8.990;2023-02-28T01:42:15;6.10;43.80
12769;DHT22;6448;48.916;8.990;2023-02-28T01:43:21;6.10;43.80
12769;DHT22;6448;48.916;8.990;2023-02-28T01:44:58;6.10;43.80
12769;DHT22;6448;48.916;8.990;2023-02-28T01:46:00;6.10;43.90
12769;DHT22;6448;48.916;8.990;2023-02-28T01:47:01;6.10;43.90
12769;DHT22;6448;48.916;8.990;2023-02-28T01:48:06;6.10;44.00
12769;DHT22;6448;48.916;8.990;2023-02-28T01:49:11;6.10;44.00
12769;DHT22;6448;48.916;8.990;2023-02-28T01:50:15;6.10;44.00
12769;DHT22;6448;48.916;8.990;2023-02-28T01:51:20;6.10;44.00
12769;DHT22;6448;48.916;8.990;2023-02-28T01:52:23;6.10;44.10
12769;DHT22;6448;48.916;8.990;2023-02-28T01:53:32;6.10;44.10
12769;DHT22;6448;48.916;8.990;2023-02-28T01:54:35;6.10;44.10
12769;DHT22;6448;48.916;8.990;2023-02-28T01:55:36;6.10;44.10
12769;DHT22;6448;48.916;8.990;2023-02-28T01:56:40;6.10;44.10
12769;DHT22;6448;48.916;8.990;2023-02-28T01:57:45;6.10;44.10
12769;DHT22;6448;48.916;8.990;2023-02-28T01:58:50;6.10;44.10
12769;DHT22;6448;48.916;8.990;2023-02-28T01:59:55;6.00;44.10
12769;DHT22;6448;48.916;8.990;2023-02-28T02:00:58;6.10;44.20
12769;DHT22;6448;48.916;8.990;2023-02-28T02:02:01;6.00;44.10
12769;DHT22;6448;48.916;8.990;2023-02-28T02:03:07;6.00;44.20
12769;DHT22;6448;48.916;8.990;2023-02-28T02:04:10;6.00;44.20
12769;DHT22;6448;48.916;8.990;2023-02-28T02:05:15;6.00;44.20
12769;DHT22;6448;48.916;8.990;2023-02-28T02:06:16;6.00;44.30
12769;DHT22;6448;48.916;8.990;2023-02-28T02:07:18;6.00;44.30
12769;DHT22;6448;48.916;8.990;2023-02-28T02:08:22;6.00;44.40
12769;DHT22;6448;48.916;8.990;2023-02-28T02:09:26;6.00;44.40
12769;DHT22;6448;48.916;8.990;2023-02-28T02:10:31;6.00;44.40
12769;DHT22;6448;48.916;8.990;2023-02-28T02:11:34;6.00;44.40
12769;DHT22;6448;48.916;8.990;2023-02-28T02:12:55;6.20;44.60
12769;DHT22;6448;48.916;8.990;2023-02-28T02:14:18;6.00;44.50
12769;DHT22;6448;48.916;8.990;2023-02-28T02:15:26;6.00;44.50
12769;DHT22;6448;48.916;8.990;2023-02-28T02:16:40;6.00;44.60
12769;DHT22;6448;48.916;8.990;2023-02-28T02:17:49;6.00;44.60
12769;DHT22;6448;48.916;8.990;2023-02-28T02:18:53;5.90;44.60
12769;DHT22;6448;48.916;8.990;2023-02-28T02:20:22;6.00;44.70
12769;DHT22;6448;48.916;8.990;2023-02-28T02:21:55;6.00;44.80
12769;DHT22;6448;48.916;8.990;2023-02-28T02:23:28;5.90;44.80
12769;DHT22;6448;48.916;8.990;2023-02-28T02:24:51;5.90;44.80
12769;DHT22;6448;48.916;8.990;2023-02-28T02:26:11;5.90;44.80
12769;DHT22;6448;48.916;8.990;2023-02-28T02:27:25;5.90;44.90
12769;DHT22;6448;48.916;8.990;2023-02-28T02:31:54;5.90;45.10
12769;DHT22;6448;48.916;8.990;2023-02-28T02:33:29;5.90;45.20
12769;DHT22;6448;48.916;8.990;2023-02-28T02:34:56;5.90;45.20
12769;DHT22;6448;48.916;8.990;2023-02-28T02:36:06;5.90;45.30
12769;DHT22;6448;48.916;8.990;2023-02-28T02:37:15;5.90;45.40
12769;DHT22;6448;48.916;8.990;2023-02-28T02:38:22;5.90;45.40
12769;DHT22;6448;48.916;8.990;2023-02-28T02:39:31;5.90;45.40
12769;DHT22;6448;48.916;8.990;2023-02-28T02:40:40;5.90;45.50
12769;DHT22;6448;48.916;8.990;2023-02-28T02:41:47;6.10;45.50
12769;DHT22;6448;48.916;8.990;2023-02-28T02:42:54;5.90;45.50
12769;DHT22;6448;48.916;8.990;2023-02-28T02:44:03;5.90;45.50
12769;DHT22;6448;48.916;8.990;2023-02-28T02:45:08;5.90;45.50
12769;DHT22;6448;48.916;8.990;2023-02-28T02:46:15;5.90;45.60
12769;DHT22;6448;48.916;8.990;2023-02-28T02:47:20;5.90;45.60
12769;DHT22;6448;48.916;8.990;2023-02-28T02:48:26;5.90;45.60
12769;DHT22;6448;48.916;8.990;2023-02-28T02:49:31;5.90;45.70
12769;DHT22;6448;48.916;8.990;2023-02-28T02:50:38;5.90;45.70
12769;DHT22;6448;48.916;8.990;2023-02-28T02:51:40;5.90;45.70
12769;DHT22;6448;48.916;8.990;2023-02-28T02:52:45;5.90;45.80
12769;DHT22;6448;48.916;8.990;2023-02-28T02:53:53;5.90;45.70
12769;DHT22;6448;48.916;8.990;2023-02-28T02:54:57;5.90;45.80
12769;DHT22;6448;48.916;8.990;2023-02-28T02:56:00;5.90;45.80
12769;DHT22;6448;48.916;8.990;2023-02-28T02:57:07;5.90;45.80
12769;DHT22;6448;48.916;8.990;2023-02-28T02:58:12;5.90;45.80
12769;DHT22;6448;48.916;8.990;2023-02-28T02:59:17;5.90;45.80
12769;DHT22;6448;48.916;8.990;2023-02-28T03:00:25;5.90;45.80
12769;DHT22;6448;48.916;8.990;2023-02-28T03:01:29;5.90;45.80
12769;DHT22;6448;48.916;8.990;2023-02-28T03:02:32;5.90;45.80
12769;DHT22;6448;48.916;8.990;2023-02-28T03:03:35;5.90;45.90
12769;DHT22;6448;48.916;8.990;2023-02-28T03:04:40;5.90;45.90
12769;DHT22;6448;48.916;8.990;2023-02-28T03:05:47;5.90;45.90
12769;DHT22;6448;48.916;8.990;2023-02-28T03:06:49;5.90;46.00
12769;DHT22;6448;48.916;8.990;2023-02-28T03:07:55;5.90;46.00
12769;DHT22;6448;48.916;8.990;2023-02-28T03:09:13;5.90;46.00
12769;DHT22;6448;48.916;8.990;2023-02-28T03:10:32;5.90;46.10
12769;DHT22;6448;48.916;8.990;2023-02-28T03:11:35;5.90;46.10
12769;DHT22;6448;48.916;8.990;2023-02-28T03:12:41;5.90;46.20
12769;DHT22;6448;48.916;8.990;2023-02-28T03:14:17;5.90;46.10
12769;DHT22;6448;48.916;8.990;2023-02-28T03:15:27;5.90;46.20
12769;DHT22;6448;48.916;8.990;2023-02-28T03:16:36;5.80;46.10
12769;DHT22;6448;48.916;8.990;2023-02-28T03:17:58;5.80;46.10
12769;DHT22;6448;48.916;8.990;2023-02-28T03:20:35;5.90;46.20
12769;DHT22;6448;48.916;8.990;2023-02-28T03:21:43;5.80;46.20
12769;DHT22;6448;48.916;8.990;2023-02-28T03:22:52;5.90;46.30
12769;DHT22;6448;48.916;8.990;2023-02-28T03:24:04;5.90;46.20
12769;DHT22;6448;48.916;8.990;2023-02-28T03:25:11;5.80;46.20
12769;DHT22;6448;48.916;8.990;2023-02-28T03:26:19;5.80;46.20
12769;DHT22;6448;48.916;8.990;2023-02-28T03:27:24;5.80;46.30
12769;DHT22;6448;48.916;8.990;2023-02-28T03:28:32;5.80;46.30
12769;DHT22;6448;48.916;8.990;2023-02-28T03:29:42;5.80;46.40
12769;DHT22;6448;48.916;8.990;2023-02-28T03:30:48;5.80;46.40
12769;DHT22;6448;48.916;8.990;2023-02-28T03:31:59;5.80;46.30
12769;DHT22;6448;48.916;8.990;2023-02-28T03:33:07;5.80;46.30
12769;DHT22;6448;48.916;8.990;2023-02-28T03:34:13;5.80;46.40
12769;DHT22;6448;48.916;8.990;2023-02-28T03:35:19;5.80;47.00
12769;DHT22;6448;48.916;8.990;2023-02-28T03:36:25;5.80;46.40
12769;DHT22;6448;48.916;8.990;2023-02-28T03:37:28;5.80;46.50
12769;DHT22;6448;48.916;8.990;2023-02-28T03:38:34;5.80;46.50
12769;DHT22;6448;48.916;8.990;2023-02-28T03:39:38;5.80;46.50
12769;DHT22;6448;48.916;8.990;2023-02-28T03:40:47;5.80;46.60
12769;DHT22;6448;48.916;8.990;2023-02-28T03:41:52;5.80;46.60
12769;DHT22;6448;48.916;8.990;2023-02-28T03:42:59;5.80;46.60
12769;DHT22;6448;48.916;8.990;2023-02-28T03:44:06;5.80;46.60
12769;DHT22;6448;48.916;8.990;2023-02-28T03:45:12;5.80;46.60
12769;DHT22;6448;48.916;8.990;2023-02-28T03:46:18;5.80;46.60
12769;DHT22;6448;48.916;8.990;2023-02-28T03:47:23;5.80;46.60
12769;DHT22;6448;48.916;8.990;2023-02-28T03:48:31;5.80;46.60
12769;DHT22;6448;48.916;8.990;2023-02-28T03:49:36;5.80;46.60
12769;DHT22;6448;48.916;8.990;2023-02-28T03:50:42;5.80;46.60
12769;DHT22;6448;48.916;8.990;2023-02-28T03:51:46;5.80;46.70
12769;DHT22;6448;48.916;8.990;2023-02-28T03:52:51;5.80;46.70
12769;DHT22;6448;48.916;8.990;2023-02-28T03:53:58;5.80;46.60
12769;DHT22;6448;48.916;8.990;2023-02-28T03:55:02;5.80;46.70
12769;DHT22;6448;48.916;8.990;2023-02-28T03:56:13;5.80;46.70
12769;DHT22;6448;48.916;8.990;2023-02-28T03:57:22;5.80;47.30
12769;DHT22;6448;48.916;8.990;2023-02-28T03:58:30;5.80;46.70
12769;DHT22;6448;48.916;8.990;2023-02-28T03:59:35;5.80;46.70
12769;DHT22;6448;48.916;8.990;2023-02-28T04:00:40;5.80;46.70
12769;DHT22;6448;48.916;8.990;2023-02-28T04:01:45;5.80;46.70
12769;DHT22;6448;48.916;8.990;2023-02-28T04:02:47;5.80;46.70
12769;DHT22;6448;48.916;8.990;2023-02-28T04:03:53;5.80;46.70
12769;DHT22;6448;48.916;8.990;2023-02-28T04:04:54;5.80;46.70
12769;DHT22;6448;48.916;8.990;2023-02-28T04:05:55;5.80;46.70
12769;DHT22;6448;48.916;8.990;2023-02-28T04:07:03;5.80;46.70
12769;DHT22;6448;48.916;8.990;2023-02-28T04:08:05;5.80;46.80
12769;DHT22;6448;48.916;8.990;2023-02-28T04:09:09;5.80;46.80
12769;DHT22;6448;48.916;8.990;2023-02-28T04:10:11;6.00;46.90
12769;DHT22;6448;48.916;8.990;2023-02-28T04:11:21;5.80;47.10
12769;DHT22;6448;48.916;8.990;2023-02-28T04:12:22;5.80;46.80
12769;DHT22;6448;48.916;8.990;2023-02-28T04:13:24;5.80;46.90
12769;DHT22;6448;48.916;8.990;2023-02-28T04:14:25;5.80;46.90
12769;DHT22;6448;48.916;8.990;2023-02-28T04:15:27;5.80;46.90
12769;DHT22;6448;48.916;8.990;2023-02-28T04:16:28;5.80;46.80
12769;DHT22;6448;48.916;8.990;2023-02-28T04:17:29;5.80;46.90
12769;DHT22;6448;48.916;8.990;2023-02-28T04:18:30;5.80;46.90
12769;DHT22;6448;48.916;8.990;2023-02-28T04:19:32;5.80;46.90
12769;DHT22;6448;48.916;8.990;2023-02-28T04:20:33;5.80;46.90
12769;DHT22;6448;48.916;8.990;2023-02-28T04:21:36;5.80;46.80
12769;DHT22;6448;48.916;8.990;2023-02-28T04:22:37;5.80;46.90
12769;DHT22;6448;48.916;8.990;2023-02-28T04:23:39;5.90;46.90
12769;DHT22;6448;48.916;8.990;2023-02-28T04:24:40;5.80;46.90
12769;DHT22;6448;48.916;8.990;2023-02-28T04:25:42;5.80;46.90
12769;DHT22;6448;48.916;8.990;2023-02-28T04:26:47;5.80;46.90
12769;DHT22;6448;48.916;8.990;2023-02-28T04:27:49;5.80;46.90
12769;DHT22;6448;48.916;8.990;2023-02-28T04:28:49;5.80;46.90
12769;DHT22;6448;48.916;8.990;2023-02-28T04:29:51;5.80;46.90
12769;DHT22;6448;48.916;8.990;2023-02-28T04:30:55;5.80;46.90
12769;DHT22;6448;48.916;8.990;2023-02-28T04:31:58;5.80;47.00
12769;DHT22;6448;48.916;8.990;2023-02-28T04:33:01;5.80;47.00
12769;DHT22;6448;48.916;8.990;2023-02-28T04:34:03;5.80;47.00
12769;DHT22;6448;48.916;8.990;2023-02-28T04:35:04;5.80;47.10
12769;DHT22;6448;48.916;8.990;2023-02-28T04:36:08;5.70;47.00
12769;DHT22;6448;48.916;8.990;2023-02-28T04:37:09;5.80;47.10
12769;DHT22;6448;48.916;8.990;2023-02-28T04:38:10;5.80;47.10
12769;DHT22;6448;48.916;8.990;2023-02-28T04:39:11;5.70;47.10
12769;DHT22;6448;48.916;8.990;2023-02-28T04:40:13;5.70;47.10
12769;DHT22;6448;48.916;8.990;2023-02-28T04:41:14;5.80;47.20
12769;DHT22;6448;48.916;8.990;2023-02-28T04:42:17;5.80;47.30
12769;DHT22;6448;48.916;8.990;2023-02-28T04:43:18;5.80;47.30
12769;DHT22;6448;48.916;8.990;2023-02-28T04:44:20;5.80;47.30
12769;DHT22;6448;48.916;8.990;2023-02-28T04:45:21;5.70;47.20
12769;DHT22;6448;48.916;8.990;2023-02-28T04:46:23;5.80;47.30
12769;DHT22;6448;48.916;8.990;2023-02-28T04:47:23;6.00;47.40
12769;DHT22;6448;48.916;8.990;2023-02-28T04:48:27;5.80;47.30
12769;DHT22;6448;48.916;8.990;2023-02-28T04:49:28;5.70;47.30
12769;DHT22;6448;48.916;8.990;2023-02-28T04:50:30;5.80;47.30
12769;DHT22;6448;48.916;8.990;2023-02-28T04:51:31;5.70;47.20
12769;DHT22;6448;48.916;8.990;2023-02-28T04:52:33;5.60;47.20
12769;DHT22;6448;48.916;8.990;2023-02-28T04:53:34;5.70;47.20
12769;DHT22;6448;48.916;8.990;2023-02-28T04:54:36;5.80;47.40
12769;DHT22;6448;48.916;8.990;2023-02-28T04:55:39;5.70;47.40
12769;DHT22;6448;48.916;8.990;2023-02-28T04:56:41;5.80;47.40
12769;DHT22;6448;48.916;8.990;2023-02-28T04:57:43;5.80;47.50
12769;DHT22;6448;48.916;8.990;2023-02-28T04:58:45;5.70;47.50
12769;DHT22;6448;48.916;8.990;2023-02-28T04:59:45;5.70;47.50
12769;DHT22;6448;48.916;8.990;2023-02-28T05:00:47;5.70;47.50
12769;DHT22;6448;48.916;8.990;2023-02-28T05:01:49;5.80;47.50
12769;DHT22;6448;48.916;8.990;2023-02-28T05:02:50;5.80;47.50
12769;DHT22;6448;48.916;8.990;2023-02-28T05:03:52;5.70;47.50
12769;DHT22;6448;48.916;8.990;2023-02-28T05:04:54;5.70;47.50
12769;DHT22;6448;48.916;8.990;2023-02-28T05:05:55;5.80;47.60
12769;DHT22;6448;48.916;8.990;2023-02-28T05:06:57;5.80;47.60
12769;DHT22;6448;48.916;8.990;2023-02-28T05:07:58;5.80;47.60
12769;DHT22;6448;48.916;8.990;2023-02-28T05:08:59;6.10;47.90
12769;DHT22;6448;48.916;8.990;2023-02-28T05:10:01;5.80;47.60
12769;DHT22;6448;48.916;8.990;2023-02-28T05:11:07;5.80;47.60
12769;DHT22;6448;48.916;8.990;2023-02-28T05:12:09;5.80;47.60
12769;DHT22;6448;48.916;8.990;2023-02-28T05:13:13;5.80;47.60
12769;DHT22;6448;48.916;8.990;2023-02-28T05:14:14;5.80;47.60
12769;DHT22;6448;48.916;8.990;2023-02-28T05:15:16;5.80;47.60
12769;DHT22;6448;48.916;8.990;2023-02-28T05:16:18;5.90;47.60
12769;DHT22;6448;48.916;8.990;2023-02-28T05:17:20;5.90;47.60
12769;DHT22;6448;48.916;8.990;2023-02-28T05:18:20;5.90;47.60
12769;DHT22;6448;48.916;8.990;2023-02-28T05:19:22;6.10;47.70
12769;DHT22;6448;48.916;8.990;2023-02-28T05:20:24;6.00;47.60
12769;DHT22;6448;48.916;8.990;2023-02-28T05:21:28;5.80;47.60
12769;DHT22;6448;48.916;8.990;2023-02-28T05:22:30;5.80;47.60
12769;DHT22;6448;48.916;8.990;2023-02-28T05:23:31;5.80;47.60
12769;DHT22;6448;48.916;8.990;2023-02-28T05:24:32;5.80;47.60
12769;DHT22;6448;48.916;8.990;2023-02-28T05:25:33;5.80;47.60
12769;DHT22;6448;48.916;8.990;2023-02-28T05:26:36;5.80;47.60
12769;DHT22;6448;48.916;8.990;2023-02-28T05:27:38;5.80;47.70
12769;DHT22;6448;48.916;8.990;2023-02-28T05:28:41;5.80;47.60
12769;DHT22;6448;48.916;8.990;2023-02-28T05:29:42;5.80;47.60
12769;DHT22;6448;48.916;8.990;2023-02-28T05:30:46;5.80;47.60
12769;DHT22;6448;48.916;8.990;2023-02-28T05:31:46;5.90;47.70
12769;DHT22;6448;48.916;8.990;2023-02-28T05:32:50;5.80;47.60
12769;DHT22;6448;48.916;8.990;2023-02-28T05:33:51;5.90;47.70
12769;DHT22;6448;48.916;8.990;2023-02-28T05:34:53;5.90;47.60
12769;DHT22;6448;48.916;8.990;2023-02-28T05:35:54;5.90;47.70
12769;DHT22;6448;48.916;8.990;2023-02-28T05:36:56;5.90;47.70
12769;DHT22;6448;48.916;8.990;2023-02-28T05:37:56;5.90;47.70
12769;DHT22;6448;48.916;8.990;2023-02-28T05:38:58;5.90;47.70
12769;DHT22;6448;48.916;8.990;2023-02-28T05:40:00;5.90;47.60
12769;DHT22;6448;48.916;8.990;2023-02-28T05:41:05;5.90;47.60
12769;DHT22;6448;48.916;8.990;2023-02-28T05:42:07;5.90;47.60
12769;DHT22;6448;48.916;8.990;2023-02-28T05:43:10;5.90;47.60
12769;DHT22;6448;48.916;8.990;2023-02-28T05:44:15;5.90;47.60
12769;DHT22;6448;48.916;8.990;2023-02-28T05:45:16;5.90;47.70
12769;DHT22;6448;48.916;8.990;2023-02-28T05:46:18;5.90;47.60
12769;DHT22;6448;48.916;8.990;2023-02-28T05:47:19;5.90;47.60
12769;DHT22;6448;48.916;8.990;2023-02-28T05:48:20;5.90;47.60
12769;DHT22;6448;48.916;8.990;2023-02-28T05:49:21;5.90;47.50
12769;DHT22;6448;48.916;8.990;2023-02-28T05:50:23;5.90;47.50
12769;DHT22;6448;48.916;8.990;2023-02-28T05:51:24;5.90;47.50
12769;DHT22;6448;48.916;8.990;2023-02-28T05:52:26;5.90;47.50
12769;DHT22;6448;48.916;8.990;2023-02-28T05:53:27;5.90;47.60
12769;DHT22;6448;48.916;8.990;2023-02-28T05:54:28;5.90;47.60
12769;DHT22;6448;48.916;8.990;2023-02-28T05:55:30;5.90;47.60
12769;DHT22;6448;48.916;8.990;2023-02-28T05:56:31;5.80;47.60
12769;DHT22;6448;48.916;8.990;2023-02-28T05:57:34;5.90;47.60
12769;DHT22;6448;48.916;8.990;2023-02-28T05:58:35;5.80;47.50
12769;DHT22;6448;48.916;8.990;2023-02-28T05:59:38;5.90;47.60
12769;DHT22;6448;48.916;8.990;2023-02-28T06:00:40;5.80;47.60
12769;DHT22;6448;48.916;8.990;2023-02-28T06:01:43;5.90;47.60
12769;DHT22;6448;48.916;8.990;2023-02-28T06:02:48;5.90;47.70
12769;DHT22;6448;48.916;8.990;2023-02-28T06:03:50;5.90;47.70
12769;DHT22;6448;48.916;8.990;2023-02-28T06:04:51;5.80;47.60
12769;DHT22;6448;48.916;8.990;2023-02-28T06:05:53;5.90;47.70
12769;DHT22;6448;48.916;8.990;2023-02-28T06:06:54;5.80;47.60
12769;DHT22;6448;48.916;8.990;2023-02-28T06:07:57;5.80;47.60
12769;DHT22;6448;48.916;8.990;2023-02-28T06:08:58;5.80;47.60
12769;DHT22;6448;48.916;8.990;2023-02-28T06:10:00;5.80;47.60
12769;DHT22;6448;48.916;8.990;2023-02-28T06:11:03;5.90;47.70
12769;DHT22;6448;48.916;8.990;2023-02-28T06:12:05;5.80;47.70
12769;DHT22;6448;48.916;8.990;2023-02-28T06:13:09;5.80;47.60
12769;DHT22;6448;48.916;8.990;2023-02-28T06:14:14;5.90;47.60
12769;DHT22;6448;48.916;8.990;2023-02-28T06:15:18;5.80;47.50
12769;DHT22;6448;48.916;8.990;2023-02-28T06:16:19;5.90;47.50
12769;DHT22;6448;48.916;8.990;2023-02-28T06:17:21;5.80;47.50
12769;DHT22;6448;48.916;8.990;2023-02-28T06:18:21;5.80;47.40
12769;DHT22;6448;48.916;8.990;2023-02-28T06:19:23;6.00;47.50
12769;DHT22;6448;48.916;8.990;2023-02-28T06:20:27;5.80;47.50
12769;DHT22;6448;48.916;8.990;2023-02-28T06:21:30;5.80;47.40
12769;DHT22;6448;48.916;8.990;2023-02-28T06:22:31;5.80;47.40
12769;DHT22;6448;48.916;8.990;2023-02-28T06:23:33;5.80;47.40
12769;DHT22;6448;48.916;8.990;2023-02-28T06:24:33;5.80;47.40
12769;DHT22;6448;48.916;8.990;2023-02-28T06:25:35;5.80;47.40
12769;DHT22;6448;48.916;8.990;2023-02-28T06:26:36;5.80;47.40
12769;DHT22;6448;48.916;8.990;2023-02-28T06:27:38;5.80;47.50
12769;DHT22;6448;48.916;8.990;2023-02-28T06:28:39;5.80;47.60
12769;DHT22;6448;48.916;8.990;2023-02-28T06:29:40;5.80;47.60
12769;DHT22;6448;48.916;8.990;2023-02-28T06:30:42;5.80;47.60
12769;DHT22;6448;48.916;8.990;2023-02-28T06:31:44;5.80;47.50
12769;DHT22;6448;48.916;8.990;2023-02-28T06:32:45;5.80;47.50
12769;DHT22;6448;48.916;8.990;2023-02-28T06:33:49;5.80;47.40
12769;DHT22;6448;48.916;8.990;2023-02-28T06:34:50;5.80;47.40
12769;DHT22;6448;48.916;8.990;2023-02-28T06:35:52;5.90;47.40
12769;DHT22;6448;48.916;8.990;2023-02-28T06:36:53;5.80;47.30
12769;DHT22;6448;48.916;8.990;2023-02-28T06:37:55;5.80;47.30
12769;DHT22;6448;48.916;8.990;2023-02-28T06:38:56;5.80;47.30
12769;DHT22;6448;48.916;8.990;2023-02-28T06:39:58;5.80;47.30
12769;DHT22;6448;48.916;8.990;2023-02-28T06:41:00;5.80;47.30
12769;DHT22;6448;48.916;8.990;2023-02-28T06:42:02;5.80;47.30
12769;DHT22;6448;48.916;8.990;2023-02-28T06:43:03;5.80;47.30
12769;DHT22;6448;48.916;8.990;2023-02-28T06:44:04;5.80;47.30
12769;DHT22;6448;48.916;8.990;2023-02-28T06:45:06;5.80;47.30
12769;DHT22;6448;48.916;8.990;2023-02-28T06:46:13;5.80;47.30
12769;DHT22;6448;48.916;8.990;2023-02-28T06:47:15;5.80;47.30
12769;DHT22;6448;48.916;8.990;2023-02-28T06:48:16;5.80;47.40
12769;DHT22;6448;48.916;8.990;2023-02-28T06:49:18;5.80;47.30
12769;DHT22;6448;48.916;8.990;2023-02-28T06:50:20;5.80;47.30
12769;DHT22;6448;48.916;8.990;2023-02-28T06:51:20;5.90;47.40
12769;DHT22;6448;48.916;8.990;2023-02-28T06:52:24;5.90;47.40
12769;DHT22;6448;48.916;8.990;2023-02-28T06:53:25;5.80;47.30
12769;DHT22;6448;48.916;8.990;2023-02-28T06:54:27;5.80;47.30
12769;DHT22;6448;48.916;8.990;2023-02-28T06:55:28;5.90;47.40
12769;DHT22;6448;48.916;8.990;2023-02-28T06:56:29;5.80;47.30
12769;DHT22;6448;48.916;8.990;2023-02-28T06:57:32;5.90;47.40
12769;DHT22;6448;48.916;8.990;2023-02-28T06:58:34;5.80;47.40
12769;DHT22;6448;48.916;8.990;2023-02-28T06:59:36;5.80;47.40
12769;DHT22;6448;48.916;8.990;2023-02-28T07:00:38;5.90;47.40
12769;DHT22;6448;48.916;8.990;2023-02-28T07:01:40;5.90;47.40